sensor_id;sensor_type;location;lat;lon;timestamp;P1;durP1;ratioP1;P2;durP2;ratioP2
53751;SDS011;41095;53.090;6.692;2023-01-25T00:00:42;19.63;;;14.38;;
53751;SDS011;41095;53.090;6.692;2023-01-25T00:03:07;25.70;;;18.58;;
53751;SDS011;41095;53.090;6.692;2023-01-25T00:05:34;22.60;;;16.88;;
53751;SDS011;41095;53.090;6.692;2023-01-25T00:07:59;21.95;;;17.35;;
53751;SDS011;41095;53.090;6.692;2023-01-25T00:10:25;22.65;;;17.52;;
53751;SDS011;41095;53.090;6.692;2023-01-25T00:12:51;22.98;;;16.40;;
53751;SDS011;41095;53.090;6.692;2023-01-25T00:15:16;27.08;;;19.70;;
53751;SDS011;41095;53.090;6.692;2023-01-25T00:17:42;26.60;;;18.95;;
53751;SDS011;41095;53.090;6.692;2023-01-25T00:20:08;24.55;;;17.52;;
53751;SDS011;41095;53.090;6.692;2023-01-25T00:22:34;26.75;;;19.92;;
53751;SDS011;41095;53.090;6.692;2023-01-25T00:25:00;25.92;;;19.50;;
53751;SDS011;41095;53.090;6.692;2023-01-25T00:27:25;26.15;;;19.05;;
53751;SDS011;41095;53.090;6.692;2023-01-25T00:29:51;26.38;;;19.70;;
53751;SDS011;41095;53.090;6.692;2023-01-25T00:34:46;25.10;;;19.38;;
53751;SDS011;41095;53.090;6.692;2023-01-25T00:39:39;25.48;;;19.02;;
53751;SDS011;41095;53.090;6.692;2023-01-25T00:42:15;27.40;;;19.30;;
53751;SDS011;41095;53.090;6.692;2023-01-25T00:44:42;25.42;;;18.95;;
53751;SDS011;41095;53.090;6.692;2023-01-25T00:47:09;25.55;;;18.20;;
53751;SDS011;41095;53.090;6.692;2023-01-25T00:49:35;23.33;;;17.45;;
53751;SDS011;41095;53.090;6.692;2023-01-25T00:52:03;26.65;;;19.02;;
53751;SDS011;41095;53.090;6.692;2023-01-25T00:54:29;26.33;;;19.30;;
53751;SDS011;41095;53.090;6.692;2023-01-25T00:56:55;25.33;;;18.77;;
53751;SDS011;41095;53.090;6.692;2023-01-25T00:59:21;29.98;;;20.20;;
53751;SDS011;41095;53.090;6.692;2023-01-25T01:01:48;27.23;;;18.63;;
53751;SDS011;41095;53.090;6.692;2023-01-25T01:04:14;24.67;;;17.90;;
53751;SDS011;41095;53.090;6.692;2023-01-25T01:06:40;24.05;;;18.52;;
53751;SDS011;41095;53.090;6.692;2023-01-25T01:09:07;28.88;;;19.77;;
53751;SDS011;41095;53.090;6.692;2023-01-25T01:11:37;26.85;;;20.20;;
53751;SDS011;41095;53.090;6.692;2023-01-25T01:14:03;25.30;;;18.45;;
53751;SDS011;41095;53.090;6.692;2023-01-25T01:16:28;24.27;;;20.02;;
53751;SDS011;41095;53.090;6.692;2023-01-25T01:18:54;32.25;;;21.77;;
53751;SDS011;41095;53.090;6.692;2023-01-25T01:21:20;26.30;;;19.25;;
53751;SDS011;41095;53.090;6.692;2023-01-25T01:23:45;29.85;;;21.42;;
53751;SDS011;41095;53.090;6.692;2023-01-25T01:26:12;28.70;;;20.50;;
53751;SDS011;41095;53.090;6.692;2023-01-25T01:28:39;29.98;;;20.15;;
53751;SDS011;41095;53.090;6.692;2023-01-25T01:31:06;28.90;;;22.25;;
53751;SDS011;41095;53.090;6.692;2023-01-25T01:33:34;25.90;;;19.17;;
53751;SDS011;41095;53.090;6.692;2023-01-25T01:36:07;27.40;;;20.75;;
53751;SDS011;41095;53.090;6.692;2023-01-25T01:38:34;27.10;;;19.90;;
53751;SDS011;41095;53.090;6.692;2023-01-25T01:40:59;33.40;;;22.23;;
53751;SDS011;41095;53.090;6.692;2023-01-25T01:43:25;25.45;;;20.27;;
53751;SDS011;41095;53.090;6.692;2023-01-25T01:45:52;33.28;;;22.00;;
53751;SDS011;41095;53.090;6.692;2023-01-25T01:51:01;29.85;;;20.50;;
53751;SDS011;41095;53.090;6.692;2023-01-25T01:53:34;32.20;;;22.45;;
53751;SDS011;41095;53.090;6.692;2023-01-25T01:56:01;35.17;;;23.77;;
53751;SDS011;41095;53.090;6.692;2023-01-25T01:58:31;33.65;;;22.33;;
53751;SDS011;41095;53.090;6.692;2023-01-25T02:00:57;34.78;;;23.13;;
53751;SDS011;41095;53.090;6.692;2023-01-25T02:03:23;32.40;;;24.02;;
53751;SDS011;41095;53.090;6.692;2023-01-25T02:08:19;31.77;;;24.17;;
53751;SDS011;41095;53.090;6.692;2023-01-25T02:10:45;29.65;;;22.25;;
53751;SDS011;41095;53.090;6.692;2023-01-25T02:13:13;31.02;;;21.77;;
53751;SDS011;41095;53.090;6.692;2023-01-25T02:15:40;36.85;;;24.35;;
53751;SDS011;41095;53.090;6.692;2023-01-25T02:18:14;36.22;;;23.95;;
53751;SDS011;41095;53.090;6.692;2023-01-25T02:20:41;34.63;;;25.90;;
53751;SDS011;41095;53.090;6.692;2023-01-25T02:25:56;35.13;;;24.05;;
53751;SDS011;41095;53.090;6.692;2023-01-25T02:28:29;38.63;;;25.70;;
53751;SDS011;41095;53.090;6.692;2023-01-25T02:31:05;32.88;;;24.05;;
53751;SDS011;41095;53.090;6.692;2023-01-25T02:33:31;32.63;;;22.50;;
53751;SDS011;41095;53.090;6.692;2023-01-25T02:38:36;30.45;;;20.77;;
53751;SDS011;41095;53.090;6.692;2023-01-25T02:41:07;33.03;;;22.33;;
53751;SDS011;41095;53.090;6.692;2023-01-25T02:43:36;37.35;;;26.33;;
53751;SDS011;41095;53.090;6.692;2023-01-25T02:46:04;32.45;;;24.88;;
53751;SDS011;41095;53.090;6.692;2023-01-25T02:48:36;36.90;;;26.50;;
53751;SDS011;41095;53.090;6.692;2023-01-25T02:51:01;40.97;;;26.40;;
53751;SDS011;41095;53.090;6.692;2023-01-25T02:53:30;38.65;;;24.65;;
53751;SDS011;41095;53.090;6.692;2023-01-25T02:55:56;37.47;;;25.40;;
53751;SDS011;41095;53.090;6.692;2023-01-25T02:58:21;41.97;;;26.25;;
53751;SDS011;41095;53.090;6.692;2023-01-25T03:00:47;38.78;;;27.08;;
53751;SDS011;41095;53.090;6.692;2023-01-25T03:03:13;43.38;;;28.58;;
53751;SDS011;41095;53.090;6.692;2023-01-25T03:05:38;42.08;;;28.35;;
53751;SDS011;41095;53.090;6.692;2023-01-25T03:08:04;41.90;;;28.08;;
53751;SDS011;41095;53.090;6.692;2023-01-25T03:10:30;34.58;;;26.92;;
53751;SDS011;41095;53.090;6.692;2023-01-25T03:12:55;40.75;;;27.75;;
53751;SDS011;41095;53.090;6.692;2023-01-25T03:15:21;40.67;;;28.35;;
53751;SDS011;41095;53.090;6.692;2023-01-25T03:17:47;38.95;;;28.30;;
53751;SDS011;41095;53.090;6.692;2023-01-25T03:20:12;44.45;;;27.70;;
53751;SDS011;41095;53.090;6.692;2023-01-25T03:22:38;38.47;;;27.88;;
53751;SDS011;41095;53.090;6.692;2023-01-25T03:25:04;41.88;;;28.40;;
53751;SDS011;41095;53.090;6.692;2023-01-25T03:27:30;41.67;;;28.70;;
53751;SDS011;41095;53.090;6.692;2023-01-25T03:29:56;46.13;;;30.02;;
53751;SDS011;41095;53.090;6.692;2023-01-25T03:32:22;48.63;;;30.33;;
53751;SDS011;41095;53.090;6.692;2023-01-25T03:34:47;40.38;;;29.45;;
53751;SDS011;41095;53.090;6.692;2023-01-25T03:37:13;44.95;;;30.65;;
53751;SDS011;41095;53.090;6.692;2023-01-25T03:39:39;40.33;;;29.42;;
53751;SDS011;41095;53.090;6.692;2023-01-25T03:42:04;40.63;;;28.75;;
53751;SDS011;41095;53.090;6.692;2023-01-25T03:44:30;43.85;;;29.00;;
53751;SDS011;41095;53.090;6.692;2023-01-25T03:46:56;43.97;;;28.20;;
53751;SDS011;41095;53.090;6.692;2023-01-25T03:49:22;46.63;;;28.98;;
53751;SDS011;41095;53.090;6.692;2023-01-25T03:51:48;44.28;;;31.48;;
53751;SDS011;41095;53.090;6.692;2023-01-25T03:54:14;47.67;;;32.92;;
53751;SDS011;41095;53.090;6.692;2023-01-25T03:56:39;45.83;;;30.77;;
53751;SDS011;41095;53.090;6.692;2023-01-25T03:59:05;47.90;;;31.60;;
53751;SDS011;41095;53.090;6.692;2023-01-25T04:01:31;47.05;;;33.50;;
53751;SDS011;41095;53.090;6.692;2023-01-25T04:03:57;46.38;;;32.33;;
53751;SDS011;41095;53.090;6.692;2023-01-25T04:06:22;50.08;;;32.25;;
53751;SDS011;41095;53.090;6.692;2023-01-25T04:08:48;43.25;;;30.45;;
53751;SDS011;41095;53.090;6.692;2023-01-25T04:11:14;50.88;;;32.80;;
53751;SDS011;41095;53.090;6.692;2023-01-25T04:13:39;51.33;;;34.80;;
53751;SDS011;41095;53.090;6.692;2023-01-25T04:16:06;54.15;;;34.63;;
53751;SDS011;41095;53.090;6.692;2023-01-25T04:18:33;48.03;;;31.00;;
53751;SDS011;41095;53.090;6.692;2023-01-25T04:20:59;59.13;;;35.33;;
53751;SDS011;41095;53.090;6.692;2023-01-25T04:23:25;52.90;;;34.53;;
53751;SDS011;41095;53.090;6.692;2023-01-25T04:25:52;54.78;;;34.72;;
53751;SDS011;41095;53.090;6.692;2023-01-25T04:28:21;55.10;;;33.50;;
53751;SDS011;41095;53.090;6.692;2023-01-25T04:30:47;50.17;;;32.72;;
53751;SDS011;41095;53.090;6.692;2023-01-25T04:33:13;44.63;;;30.77;;
53751;SDS011;41095;53.090;6.692;2023-01-25T04:35:39;45.15;;;28.40;;
53751;SDS011;41095;53.090;6.692;2023-01-25T04:38:05;53.38;;;32.78;;
53751;SDS011;41095;53.090;6.692;2023-01-25T04:40:31;50.50;;;32.00;;
53751;SDS011;41095;53.090;6.692;2023-01-25T04:42:57;37.70;;;26.88;;
53751;SDS011;41095;53.090;6.692;2023-01-25T04:45:23;47.92;;;31.88;;
53751;SDS011;41095;53.090;6.692;2023-01-25T04:47:54;48.00;;;31.17;;
53751;SDS011;41095;53.090;6.692;2023-01-25T04:50:23;49.50;;;33.53;;
53751;SDS011;41095;53.090;6.692;2023-01-25T04:52:49;48.40;;;32.42;;
53751;SDS011;41095;53.090;6.692;2023-01-25T04:55:16;47.08;;;31.13;;
53751;SDS011;41095;53.090;6.692;2023-01-25T04:57:41;50.53;;;32.70;;
53751;SDS011;41095;53.090;6.692;2023-01-25T05:00:07;54.17;;;34.22;;
53751;SDS011;41095;53.090;6.692;2023-01-25T05:02:34;33.72;;;24.30;;
53751;SDS011;41095;53.090;6.692;2023-01-25T05:04:59;43.33;;;28.92;;
53751;SDS011;41095;53.090;6.692;2023-01-25T05:07:25;43.50;;;29.10;;
53751;SDS011;41095;53.090;6.692;2023-01-25T05:09:51;50.75;;;35.40;;
53751;SDS011;41095;53.090;6.692;2023-01-25T05:12:16;47.35;;;33.17;;
53751;SDS011;41095;53.090;6.692;2023-01-25T05:14:42;47.47;;;31.63;;
53751;SDS011;41095;53.090;6.692;2023-01-25T05:17:08;47.40;;;31.10;;
53751;SDS011;41095;53.090;6.692;2023-01-25T05:19:34;42.03;;;27.25;;
53751;SDS011;41095;53.090;6.692;2023-01-25T05:22:00;46.20;;;32.08;;
53751;SDS011;41095;53.090;6.692;2023-01-25T05:24:28;51.35;;;32.53;;
53751;SDS011;41095;53.090;6.692;2023-01-25T05:26:56;43.03;;;29.00;;
53751;SDS011;41095;53.090;6.692;2023-01-25T05:29:25;48.92;;;32.70;;
53751;SDS011;41095;53.090;6.692;2023-01-25T05:31:55;51.28;;;35.03;;
53751;SDS011;41095;53.090;6.692;2023-01-25T05:34:21;50.50;;;29.65;;
53751;SDS011;41095;53.090;6.692;2023-01-25T05:36:47;45.13;;;33.28;;
53751;SDS011;41095;53.090;6.692;2023-01-25T05:39:13;51.63;;;33.35;;
53751;SDS011;41095;53.090;6.692;2023-01-25T05:41:39;47.22;;;31.23;;
53751;SDS011;41095;53.090;6.692;2023-01-25T05:44:04;50.67;;;35.10;;
53751;SDS011;41095;53.090;6.692;2023-01-25T05:46:30;52.58;;;33.75;;
53751;SDS011;41095;53.090;6.692;2023-01-25T05:48:56;48.25;;;30.73;;
53751;SDS011;41095;53.090;6.692;2023-01-25T05:51:21;45.92;;;33.03;;
53751;SDS011;41095;53.090;6.692;2023-01-25T05:53:47;57.22;;;34.53;;
53751;SDS011;41095;53.090;6.692;2023-01-25T05:56:13;46.40;;;31.67;;
53751;SDS011;41095;53.090;6.692;2023-01-25T05:58:38;49.47;;;32.38;;
53751;SDS011;41095;53.090;6.692;2023-01-25T06:01:05;52.60;;;33.28;;
53751;SDS011;41095;53.090;6.692;2023-01-25T06:03:32;53.70;;;32.22;;
53751;SDS011;41095;53.090;6.692;2023-01-25T06:05:58;53.00;;;34.78;;
53751;SDS011;41095;53.090;6.692;2023-01-25T06:08:26;40.55;;;28.08;;
53751;SDS011;41095;53.090;6.692;2023-01-25T06:10:53;50.72;;;33.42;;
53751;SDS011;41095;53.090;6.692;2023-01-25T06:13:19;50.53;;;32.40;;
53751;SDS011;41095;53.090;6.692;2023-01-25T06:15:53;43.40;;;31.85;;
53751;SDS011;41095;53.090;6.692;2023-01-25T06:20:45;46.97;;;29.88;;
53751;SDS011;41095;53.090;6.692;2023-01-25T06:23:11;47.30;;;31.13;;
53751;SDS011;41095;53.090;6.692;2023-01-25T06:25:37;44.58;;;29.58;;
53751;SDS011;41095;53.090;6.692;2023-01-25T06:28:03;42.58;;;29.90;;
53751;SDS011;41095;53.090;6.692;2023-01-25T06:30:29;36.45;;;25.83;;
53751;SDS011;41095;53.090;6.692;2023-01-25T06:32:58;42.65;;;28.13;;
53751;SDS011;41095;53.090;6.692;2023-01-25T06:35:24;45.83;;;30.67;;
53751;SDS011;41095;53.090;6.692;2023-01-25T06:37:50;43.08;;;29.77;;
53751;SDS011;41095;53.090;6.692;2023-01-25T06:40:15;43.60;;;29.90;;
53751;SDS011;41095;53.090;6.692;2023-01-25T06:42:41;49.15;;;30.05;;
53751;SDS011;41095;53.090;6.692;2023-01-25T06:45:07;42.08;;;28.05;;
53751;SDS011;41095;53.090;6.692;2023-01-25T06:47:34;44.20;;;28.40;;
53751;SDS011;41095;53.090;6.692;2023-01-25T06:49:59;38.28;;;26.23;;
53751;SDS011;41095;53.090;6.692;2023-01-25T06:52:25;46.08;;;30.30;;
53751;SDS011;41095;53.090;6.692;2023-01-25T06:54:51;43.67;;;30.48;;
53751;SDS011;41095;53.090;6.692;2023-01-25T06:57:16;42.50;;;28.55;;
53751;SDS011;41095;53.090;6.692;2023-01-25T06:59:42;38.25;;;27.05;;
53751;SDS011;41095;53.090;6.692;2023-01-25T07:02:11;39.65;;;27.25;;
53751;SDS011;41095;53.090;6.692;2023-01-25T07:04:39;38.75;;;25.75;;
53751;SDS011;41095;53.090;6.692;2023-01-25T07:07:06;36.47;;;26.85;;
53751;SDS011;41095;53.090;6.692;2023-01-25T07:09:33;37.67;;;26.63;;
53751;SDS011;41095;53.090;6.692;2023-01-25T07:11:59;40.50;;;28.23;;
53751;SDS011;41095;53.090;6.692;2023-01-25T07:14:26;41.42;;;28.35;;
53751;SDS011;41095;53.090;6.692;2023-01-25T07:16:52;39.17;;;27.10;;
53751;SDS011;41095;53.090;6.692;2023-01-25T07:19:17;37.40;;;26.10;;
53751;SDS011;41095;53.090;6.692;2023-01-25T07:21:43;36.53;;;26.25;;
53751;SDS011;41095;53.090;6.692;2023-01-25T07:24:12;40.83;;;26.38;;
53751;SDS011;41095;53.090;6.692;2023-01-25T07:26:39;38.45;;;26.95;;
53751;SDS011;41095;53.090;6.692;2023-01-25T07:29:05;37.92;;;24.90;;
53751;SDS011;41095;53.090;6.692;2023-01-25T07:31:31;34.88;;;25.40;;
53751;SDS011;41095;53.090;6.692;2023-01-25T07:33:57;39.42;;;27.33;;
53751;SDS011;41095;53.090;6.692;2023-01-25T07:36:23;40.92;;;28.25;;
53751;SDS011;41095;53.090;6.692;2023-01-25T07:38:53;38.92;;;27.15;;
53751;SDS011;41095;53.090;6.692;2023-01-25T07:41:20;36.47;;;26.70;;
53751;SDS011;41095;53.090;6.692;2023-01-25T07:43:47;43.25;;;28.05;;
53751;SDS011;41095;53.090;6.692;2023-01-25T07:46:13;36.22;;;25.52;;
53751;SDS011;41095;53.090;6.692;2023-01-25T07:48:40;40.63;;;28.08;;
53751;SDS011;41095;53.090;6.692;2023-01-25T07:51:11;38.80;;;27.73;;
53751;SDS011;41095;53.090;6.692;2023-01-25T07:53:56;34.17;;;25.98;;
53751;SDS011;41095;53.090;6.692;2023-01-25T07:56:24;38.80;;;28.67;;
53751;SDS011;41095;53.090;6.692;2023-01-25T07:58:52;41.10;;;28.45;;
53751;SDS011;41095;53.090;6.692;2023-01-25T08:01:20;42.85;;;29.38;;
53751;SDS011;41095;53.090;6.692;2023-01-25T08:03:48;43.13;;;31.00;;
53751;SDS011;41095;53.090;6.692;2023-01-25T08:06:14;41.60;;;26.65;;
53751;SDS011;41095;53.090;6.692;2023-01-25T08:08:44;41.17;;;28.08;;
53751;SDS011;41095;53.090;6.692;2023-01-25T08:11:14;40.17;;;28.23;;
53751;SDS011;41095;53.090;6.692;2023-01-25T08:13:45;40.20;;;26.80;;
53751;SDS011;41095;53.090;6.692;2023-01-25T08:16:15;39.67;;;28.60;;
53751;SDS011;41095;53.090;6.692;2023-01-25T08:18:42;41.90;;;27.63;;
53751;SDS011;41095;53.090;6.692;2023-01-25T08:21:10;38.58;;;27.23;;
53751;SDS011;41095;53.090;6.692;2023-01-25T08:23:36;40.40;;;26.30;;
53751;SDS011;41095;53.090;6.692;2023-01-25T08:26:06;42.35;;;30.00;;
53751;SDS011;41095;53.090;6.692;2023-01-25T08:28:33;38.42;;;28.52;;
53751;SDS011;41095;53.090;6.692;2023-01-25T08:31:10;38.60;;;27.30;;
53751;SDS011;41095;53.090;6.692;2023-01-25T08:33:38;44.33;;;29.40;;
53751;SDS011;41095;53.090;6.692;2023-01-25T08:36:04;44.22;;;28.95;;
53751;SDS011;41095;53.090;6.692;2023-01-25T08:38:32;39.95;;;26.20;;
53751;SDS011;41095;53.090;6.692;2023-01-25T08:41:05;36.78;;;26.50;;
53751;SDS011;41095;53.090;6.692;2023-01-25T08:43:32;37.78;;;26.30;;
53751;SDS011;41095;53.090;6.692;2023-01-25T08:45:58;37.20;;;26.13;;
53751;SDS011;41095;53.090;6.692;2023-01-25T08:48:24;45.10;;;29.52;;
53751;SDS011;41095;53.090;6.692;2023-01-25T08:50:50;32.00;;;24.02;;
53751;SDS011;41095;53.090;6.692;2023-01-25T08:53:16;41.53;;;27.38;;
53751;SDS011;41095;53.090;6.692;2023-01-25T08:55:42;42.08;;;27.95;;
53751;SDS011;41095;53.090;6.692;2023-01-25T08:58:09;43.78;;;28.02;;
53751;SDS011;41095;53.090;6.692;2023-01-25T09:00:38;46.55;;;30.20;;
53751;SDS011;41095;53.090;6.692;2023-01-25T09:03:08;44.63;;;29.38;;
53751;SDS011;41095;53.090;6.692;2023-01-25T09:05:35;43.90;;;30.50;;
53751;SDS011;41095;53.090;6.692;2023-01-25T09:08:03;44.50;;;29.70;;
53751;SDS011;41095;53.090;6.692;2023-01-25T09:10:30;42.88;;;29.08;;
53751;SDS011;41095;53.090;6.692;2023-01-25T09:12:56;42.22;;;26.40;;
53751;SDS011;41095;53.090;6.692;2023-01-25T09:15:22;42.30;;;30.50;;
53751;SDS011;41095;53.090;6.692;2023-01-25T09:17:51;41.95;;;28.17;;
53751;SDS011;41095;53.090;6.692;2023-01-25T09:20:18;38.15;;;27.60;;
53751;SDS011;41095;53.090;6.692;2023-01-25T09:22:44;40.33;;;27.65;;
53751;SDS011;41095;53.090;6.692;2023-01-25T09:25:10;44.22;;;29.25;;
53751;SDS011;41095;53.090;6.692;2023-01-25T09:27:36;42.95;;;29.45;;
53751;SDS011;41095;53.090;6.692;2023-01-25T09:30:03;44.17;;;27.98;;
53751;SDS011;41095;53.090;6.692;2023-01-25T09:32:29;46.95;;;31.27;;
53751;SDS011;41095;53.090;6.692;2023-01-25T09:34:55;44.88;;;31.40;;
53751;SDS011;41095;53.090;6.692;2023-01-25T09:37:20;50.50;;;32.78;;
53751;SDS011;41095;53.090;6.692;2023-01-25T09:39:46;42.58;;;29.40;;
53751;SDS011;41095;53.090;6.692;2023-01-25T09:49:51;49.08;;;31.63;;
53751;SDS011;41095;53.090;6.692;2023-01-25T09:55:11;39.42;;;28.70;;
53751;SDS011;41095;53.090;6.692;2023-01-25T09:57:39;43.33;;;31.98;;
53751;SDS011;41095;53.090;6.692;2023-01-25T10:00:16;48.97;;;32.63;;
53751;SDS011;41095;53.090;6.692;2023-01-25T10:02:58;44.03;;;30.45;;
53751;SDS011;41095;53.090;6.692;2023-01-25T10:05:27;44.33;;;29.52;;
53751;SDS011;41095;53.090;6.692;2023-01-25T10:07:58;36.80;;;24.95;;
53751;SDS011;41095;53.090;6.692;2023-01-25T10:10:37;47.03;;;30.67;;
53751;SDS011;41095;53.090;6.692;2023-01-25T10:13:07;42.17;;;29.35;;
53751;SDS011;41095;53.090;6.692;2023-01-25T10:15:39;45.95;;;32.08;;
53751;SDS011;41095;53.090;6.692;2023-01-25T10:20:46;39.85;;;28.73;;
53751;SDS011;41095;53.090;6.692;2023-01-25T10:31:21;42.42;;;29.70;;
53751;SDS011;41095;53.090;6.692;2023-01-25T10:34:14;52.35;;;33.17;;
53751;SDS011;41095;53.090;6.692;2023-01-25T10:36:41;43.42;;;27.67;;
53751;SDS011;41095;53.090;6.692;2023-01-25T10:39:10;53.72;;;31.92;;
53751;SDS011;41095;53.090;6.692;2023-01-25T10:44:26;48.47;;;29.63;;
53751;SDS011;41095;53.090;6.692;2023-01-25T10:46:57;37.30;;;25.95;;
53751;SDS011;41095;53.090;6.692;2023-01-25T10:52:17;41.45;;;26.15;;
53751;SDS011;41095;53.090;6.692;2023-01-25T10:54:45;36.38;;;26.55;;
53751;SDS011;41095;53.090;6.692;2023-01-25T10:57:17;42.03;;;27.40;;
53751;SDS011;41095;53.090;6.692;2023-01-25T10:59:45;39.45;;;25.92;;
53751;SDS011;41095;53.090;6.692;2023-01-25T11:05:45;43.80;;;29.35;;
53751;SDS011;41095;53.090;6.692;2023-01-25T11:07:55;49.72;;;30.40;;
53751;SDS011;41095;53.090;6.692;2023-01-25T11:13:36;43.47;;;28.30;;
53751;SDS011;41095;53.090;6.692;2023-01-25T11:18:27;43.47;;;28.23;;
53751;SDS011;41095;53.090;6.692;2023-01-25T11:21:05;40.78;;;27.35;;
53751;SDS011;41095;53.090;6.692;2023-01-25T11:23:35;43.30;;;28.65;;
53751;SDS011;41095;53.090;6.692;2023-01-25T11:26:17;34.30;;;26.45;;
53751;SDS011;41095;53.090;6.692;2023-01-25T11:28:44;45.00;;;30.15;;
53751;SDS011;41095;53.090;6.692;2023-01-25T11:31:18;43.42;;;27.95;;
53751;SDS011;41095;53.090;6.692;2023-01-25T11:33:45;49.22;;;30.02;;
53751;SDS011;41095;53.090;6.692;2023-01-25T11:39:15;42.10;;;29.50;;
53751;SDS011;41095;53.090;6.692;2023-01-25T11:42:00;44.75;;;27.35;;
53751;SDS011;41095;53.090;6.692;2023-01-25T11:47:17;42.60;;;28.90;;
53751;SDS011;41095;53.090;6.692;2023-01-25T11:56:12;47.30;;;28.10;;
53751;SDS011;41095;53.090;6.692;2023-01-25T12:01:30;39.40;;;25.80;;
53751;SDS011;41095;53.090;6.692;2023-01-25T12:09:19;50.33;;;30.33;;
53751;SDS011;41095;53.090;6.692;2023-01-25T12:12:06;43.45;;;29.85;;
53751;SDS011;41095;53.090;6.692;2023-01-25T12:23:30;45.03;;;27.70;;
53751;SDS011;41095;53.090;6.692;2023-01-25T12:26:11;45.40;;;26.88;;
53751;SDS011;41095;53.090;6.692;2023-01-25T12:28:50;42.42;;;27.13;;
53751;SDS011;41095;53.090;6.692;2023-01-25T12:31:25;47.25;;;26.25;;
53751;SDS011;41095;53.090;6.692;2023-01-25T12:34:03;45.28;;;28.70;;
53751;SDS011;41095;53.090;6.692;2023-01-25T12:39:12;46.65;;;28.23;;
53751;SDS011;41095;53.090;6.692;2023-01-25T12:49:37;46.70;;;28.30;;
53751;SDS011;41095;53.090;6.692;2023-01-25T12:52:19;39.05;;;25.27;;
53751;SDS011;41095;53.090;6.692;2023-01-25T12:54:52;40.55;;;25.42;;
53751;SDS011;41095;53.090;6.692;2023-01-25T12:57:24;41.83;;;25.42;;
53751;SDS011;41095;53.090;6.692;2023-01-25T12:59:57;42.55;;;26.35;;
53751;SDS011;41095;53.090;6.692;2023-01-25T13:07:49;38.90;;;25.83;;
53751;SDS011;41095;53.090;6.692;2023-01-25T13:10:25;45.88;;;28.45;;
53751;SDS011;41095;53.090;6.692;2023-01-25T13:20:49;43.90;;;29.83;;
53751;SDS011;41095;53.090;6.692;2023-01-25T13:24:06;43.55;;;28.92;;
53751;SDS011;41095;53.090;6.692;2023-01-25T13:28:52;46.05;;;29.38;;
53751;SDS011;41095;53.090;6.692;2023-01-25T13:35:23;46.97;;;27.65;;
53751;SDS011;41095;53.090;6.692;2023-01-25T13:36:58;46.63;;;27.63;;
53751;SDS011;41095;53.090;6.692;2023-01-25T13:41:59;46.00;;;28.73;;
53751;SDS011;41095;53.090;6.692;2023-01-25T13:44:29;49.22;;;27.27;;
53751;SDS011;41095;53.090;6.692;2023-01-25T13:46:58;54.75;;;29.83;;
53751;SDS011;41095;53.090;6.692;2023-01-25T13:50:04;47.47;;;28.33;;
53751;SDS011;41095;53.090;6.692;2023-01-25T13:52:23;46.88;;;28.75;;
53751;SDS011;41095;53.090;6.692;2023-01-25T13:54:52;49.20;;;30.27;;
53751;SDS011;41095;53.090;6.692;2023-01-25T13:57:37;44.15;;;28.65;;
53751;SDS011;41095;53.090;6.692;2023-01-25T14:00:04;46.63;;;27.85;;
53751;SDS011;41095;53.090;6.692;2023-01-25T14:02:35;45.15;;;28.63;;
53751;SDS011;41095;53.090;6.692;2023-01-25T14:05:02;39.92;;;26.25;;
53751;SDS011;41095;53.090;6.692;2023-01-25T14:07:31;45.63;;;26.08;;
53751;SDS011;41095;53.090;6.692;2023-01-25T14:10:05;54.75;;;29.92;;
53751;SDS011;41095;53.090;6.692;2023-01-25T14:12:41;46.50;;;28.25;;
53751;SDS011;41095;53.090;6.692;2023-01-25T14:21:11;50.83;;;27.50;;
53751;SDS011;41095;53.090;6.692;2023-01-25T14:23:42;46.22;;;26.63;;
53751;SDS011;41095;53.090;6.692;2023-01-25T14:28:53;41.58;;;26.45;;
53751;SDS011;41095;53.090;6.692;2023-01-25T14:31:21;43.78;;;27.70;;
53751;SDS011;41095;53.090;6.692;2023-01-25T14:33:49;42.92;;;26.00;;
53751;SDS011;41095;53.090;6.692;2023-01-25T14:36:21;45.20;;;25.42;;
53751;SDS011;41095;53.090;6.692;2023-01-25T14:38:48;44.22;;;27.83;;
53751;SDS011;41095;53.090;6.692;2023-01-25T14:43:47;44.30;;;27.73;;
53751;SDS011;41095;53.090;6.692;2023-01-25T14:51:53;44.40;;;27.50;;
53751;SDS011;41095;53.090;6.692;2023-01-25T14:54:21;51.08;;;28.52;;
53751;SDS011;41095;53.090;6.692;2023-01-25T14:56:54;42.58;;;26.02;;
53751;SDS011;41095;53.090;6.692;2023-01-25T15:04:58;52.58;;;31.17;;
53751;SDS011;41095;53.090;6.692;2023-01-25T15:07:47;51.53;;;31.42;;
53751;SDS011;41095;53.090;6.692;2023-01-25T15:13:38;51.92;;;32.50;;
53751;SDS011;41095;53.090;6.692;2023-01-25T15:15:49;51.58;;;30.88;;
53751;SDS011;41095;53.090;6.692;2023-01-25T15:21:09;51.80;;;28.70;;
53751;SDS011;41095;53.090;6.692;2023-01-25T15:23:40;53.55;;;29.88;;
53751;SDS011;41095;53.090;6.692;2023-01-25T15:26:23;54.72;;;31.88;;
53751;SDS011;41095;53.090;6.692;2023-01-25T15:28:52;51.08;;;31.23;;
53751;SDS011;41095;53.090;6.692;2023-01-25T15:31:29;56.47;;;31.55;;
53751;SDS011;41095;53.090;6.692;2023-01-25T15:33:57;50.65;;;30.15;;
53751;SDS011;41095;53.090;6.692;2023-01-25T15:36:24;45.50;;;28.92;;
53751;SDS011;41095;53.090;6.692;2023-01-25T15:38:50;49.90;;;29.70;;
53751;SDS011;41095;53.090;6.692;2023-01-25T15:41:16;45.63;;;27.50;;
53751;SDS011;41095;53.090;6.692;2023-01-25T15:43:45;47.95;;;27.20;;
53751;SDS011;41095;53.090;6.692;2023-01-25T15:46:19;48.28;;;32.15;;
53751;SDS011;41095;53.090;6.692;2023-01-25T15:48:50;55.55;;;31.67;;
53751;SDS011;41095;53.090;6.692;2023-01-25T15:51:16;49.15;;;31.08;;
53751;SDS011;41095;53.090;6.692;2023-01-25T15:53:43;51.97;;;29.90;;
53751;SDS011;41095;53.090;6.692;2023-01-25T15:56:15;56.30;;;30.67;;
53751;SDS011;41095;53.090;6.692;2023-01-25T15:59:00;55.38;;;32.35;;
53751;SDS011;41095;53.090;6.692;2023-01-25T16:01:31;49.65;;;29.80;;
53751;SDS011;41095;53.090;6.692;2023-01-25T16:03:57;48.60;;;27.25;;
53751;SDS011;41095;53.090;6.692;2023-01-25T16:09:21;54.83;;;31.98;;
53751;SDS011;41095;53.090;6.692;2023-01-25T16:11:55;50.53;;;29.17;;
53751;SDS011;41095;53.090;6.692;2023-01-25T16:14:22;57.85;;;34.50;;
53751;SDS011;41095;53.090;6.692;2023-01-25T16:16:54;54.20;;;31.55;;
53751;SDS011;41095;53.090;6.692;2023-01-25T16:19:23;57.03;;;31.73;;
53751;SDS011;41095;53.090;6.692;2023-01-25T16:21:49;59.72;;;32.80;;
53751;SDS011;41095;53.090;6.692;2023-01-25T16:24:15;54.70;;;33.17;;
53751;SDS011;41095;53.090;6.692;2023-01-25T16:26:47;52.28;;;31.95;;
53751;SDS011;41095;53.090;6.692;2023-01-25T16:29:18;52.17;;;32.97;;
53751;SDS011;41095;53.090;6.692;2023-01-25T16:31:44;51.58;;;32.20;;
53751;SDS011;41095;53.090;6.692;2023-01-25T16:34:10;58.15;;;32.92;;
53751;SDS011;41095;53.090;6.692;2023-01-25T16:36:36;64.47;;;34.63;;
53751;SDS011;41095;53.090;6.692;2023-01-25T16:39:06;57.40;;;32.72;;
53751;SDS011;41095;53.090;6.692;2023-01-25T16:41:34;52.42;;;32.75;;
53751;SDS011;41095;53.090;6.692;2023-01-25T16:43:59;52.08;;;32.10;;
53751;SDS011;41095;53.090;6.692;2023-01-25T16:46:25;61.63;;;35.35;;
53751;SDS011;41095;53.090;6.692;2023-01-25T16:48:51;53.15;;;31.15;;
53751;SDS011;41095;53.090;6.692;2023-01-25T16:51:26;59.45;;;34.40;;
53751;SDS011;41095;53.090;6.692;2023-01-25T16:53:53;59.50;;;34.22;;